Antofagasta, Chile
Current Conditions -  °F | °C
As of 4:00 PM on Sunday 23 Nov 2014 (Local Time) from SCFA Reporting Station
Few Clouds Few Clouds  
Wind Chill: 64°   Ceiling: Unl
Heat Index: 64°   Visibility: 6mi
Dew Point: 52°   Wind: 15mph
Humidity: 64%   Direction: 200°SSW
Pressure: 29.91"   Gusts: NA
Location:  23.65°S, 70.39°W
Report Text: SCFA 232000Z 20013KT 9999 FEW025 18/11 Q1013 NOSIG
Loading
Personal Weather Stations






























Interactive Weather Map New forecast layout! Learn more

10-Day Weather Forecast

Advertisements
Track Severe Weather on mobile